Time;durP1;ratioP1;P1;durP2;ratioP2;P2;SDS_P1;SDS_P2;PMS_P1;PMS_P2;Temp;Humidity;BMP_temperature;BMP_pressure;BME280_temperature;BME280_humidity;BME280_pressure;Samples;Min_cycle;Max_cycle;Signal;HPM_P1;HPM_P2
2021/08/10 00:00:25;;;;;;;5.45;1.70;;;;;;;;;;5046634;28;20084;-64
2021/08/10 00:02:50;;;;;;;2.67;1.70;;;;;;;;;;5051013;28;20085;-67
2021/08/10 00:05:16;;;;;;;3.85;2.00;;;;;;;;;;5049035;28;20041;-67
2021/08/10 00:07:41;;;;;;;6.60;1.55;;;;;;;;;;5047757;28;20712;-67
2021/08/10 00:10:07;;;;;;;4.93;2.10;;;;;;;;;;5029709;28;20024;-65
2021/08/10 00:12:33;;;;;;;3.63;1.80;;;;;;;;;;5047031;28;20029;-67
2021/08/10 00:14:58;;;;;;;4.90;1.92;;;;;;;;;;5047308;28;20043;-67
2021/08/10 00:17:23;;;;;;;4.15;1.77;;;;;;;;;;5053391;28;20528;-66
2021/08/10 00:19:49;;;;;;;6.53;2.05;;;;;;;;;;5067297;28;20803;-67
2021/08/10 00:22:14;;;;;;;5.95;1.80;;;;;;;;;;5066397;28;20055;-66
2021/08/10 00:24:39;;;;;;;4.30;1.70;;;;;;;;;;5066861;28;20465;-66
2021/08/10 00:27:05;;;;;;;5.18;1.75;;;;;;;;;;5068493;28;20024;-67
2021/08/10 00:29:31;;;;;;;5.28;1.67;;;;;;;;;;5066956;28;20082;-68
2021/08/10 00:31:56;;;;;;;4.95;1.52;;;;;;;;;;5049448;28;20481;-67
2021/08/10 00:34:22;;;;;;;3.13;1.48;;;;;;;;;;5065650;28;20711;-66
2021/08/10 00:36:47;;;;;;;4.78;1.73;;;;;;;;;;5048054;28;20056;-66
2021/08/10 00:39:13;;;;;;;4.00;1.80;;;;;;;;;;5047558;28;20037;-68
2021/08/10 00:41:38;;;;;;;5.75;1.60;;;;;;;;;;5045651;28;20033;-65
2021/08/10 00:44:04;;;;;;;3.70;1.60;;;;;;;;;;5038176;28;20021;-64
2021/08/10 00:46:30;;;;;;;4.43;1.60;;;;;;;;;;5060018;28;20577;-66
2021/08/10 00:48:55;;;;;;;4.03;1.60;;;;;;;;;;5059686;28;20108;-67
2021/08/10 00:51:21;;;;;;;4.25;1.60;;;;;;;;;;5032871;28;20055;-65
2021/08/10 00:53:46;;;;;;;3.30;1.50;;;;;;;;;;5067145;28;20028;-65
2021/08/10 00:56:12;;;;;;;5.88;1.50;;;;;;;;;;5066213;28;20016;-67
2021/08/10 00:58:38;;;;;;;4.20;1.80;;;;;;;;;;5058861;28;20060;-64
2021/08/10 01:01:04;;;;;;;4.57;1.70;;;;;;;;;;5047720;28;20537;-66
2021/08/10 01:03:31;;;;;;;5.45;1.77;;;;;;;;;;5058986;28;20040;-66
2021/08/10 01:05:57;;;;;;;4.88;1.33;;;;;;;;;;5050958;28;20052;-66
2021/08/10 01:08:40;;;;;;;4.15;1.40;;;;;;;;;;5050521;28;20662;-67
2021/08/10 01:11:21;;;;;;;4.70;1.40;;;;;;;;;;5051204;28;20041;-65
2021/08/10 01:14:31;;;;;;;3.80;1.60;;;;;;;;;;5051025;28;20032;-64
2021/08/10 01:17:03;;;;;;;4.47;1.50;;;;;;;;;;5030585;28;20581;-65
2021/08/10 01:19:44;;;;;;;3.97;1.70;;;;;;;;;;5069748;28;20036;-67
2021/08/10 01:22:13;;;;;;;3.75;1.75;;;;;;;;;;5053450;28;20035;-66
2021/08/10 01:24:45;;;;;;;4.45;1.70;;;;;;;;;;5069887;28;20697;-67
2021/08/10 01:27:32;;;;;;;6.03;1.70;;;;;;;;;;5052919;28;20017;-67
2021/08/10 01:30:20;;;;;;;4.90;2.05;;;;;;;;;;5070454;28;20028;-65
2021/08/10 01:32:48;;;;;;;3.33;1.80;;;;;;;;;;5055949;28;20074;-67
2021/08/10 01:35:16;;;;;;;5.40;1.70;;;;;;;;;;5041011;28;20029;-67
2021/08/10 01:37:46;;;;;;;2.78;1.70;;;;;;;;;;5042884;28;20466;-66
2021/08/10 01:40:12;;;;;;;5.20;1.70;;;;;;;;;;5055476;28;20489;-65
2021/08/10 01:42:40;;;;;;;4.47;1.65;;;;;;;;;;5048919;28;20037;-67
2021/08/10 01:45:08;;;;;;;4.53;1.58;;;;;;;;;;5051486;28;20020;-66
2021/08/10 01:47:35;;;;;;;5.32;1.65;;;;;;;;;;5059080;28;20115;-65
2021/08/10 01:50:02;;;;;;;5.43;1.85;;;;;;;;;;5059092;28;20140;-68
2021/08/10 01:52:28;;;;;;;4.38;1.65;;;;;;;;;;5040976;28;20052;-65
2021/08/10 01:54:55;;;;;;;5.43;1.80;;;;;;;;;;5048827;28;20109;-67
2021/08/10 01:57:21;;;;;;;4.05;1.70;;;;;;;;;;5052471;28;20036;-68
2021/08/10 01:59:49;;;;;;;5.10;1.58;;;;;;;;;;5050045;28;20037;-65
2021/08/10 02:02:14;;;;;;;3.75;1.70;;;;;;;;;;5064348;28;20616;-66
2021/08/10 02:04:41;;;;;;;3.97;1.70;;;;;;;;;;5045359;28;20181;-64
2021/08/10 02:07:07;;;;;;;2.65;1.65;;;;;;;;;;5049950;28;20378;-67
2021/08/10 02:09:33;;;;;;;3.67;1.40;;;;;;;;;;5028670;28;20033;-68
2021/08/10 02:12:01;;;;;;;2.87;1.70;;;;;;;;;;5058412;28;20025;-66
2021/08/10 02:14:27;;;;;;;3.65;1.60;;;;;;;;;;5048864;28;20119;-65
2021/08/10 02:16:56;;;;;;;4.88;1.70;;;;;;;;;;5050605;28;20490;-66
2021/08/10 02:19:22;;;;;;;6.20;1.70;;;;;;;;;;5069062;28;20020;-66
2021/08/10 02:21:51;;;;;;;4.70;1.23;;;;;;;;;;5051718;28;20024;-67
2021/08/10 02:24:33;;;;;;;3.67;1.40;;;;;;;;;;5069616;28;20124;-68
2021/08/10 02:27:06;;;;;;;3.30;1.63;;;;;;;;;;5069409;28;20141;-66
2021/08/10 02:29:36;;;;;;;3.00;1.58;;;;;;;;;;5068445;28;20120;-65
2021/08/10 02:32:02;;;;;;;4.47;1.88;;;;;;;;;;5034827;28;20067;-67
2021/08/10 02:34:28;;;;;;;5.05;1.90;;;;;;;;;;5048603;28;20025;-65
2021/08/10 02:36:59;;;;;;;4.50;1.80;;;;;;;;;;5050189;28;20060;-66
2021/08/10 02:39:26;;;;;;;5.75;1.75;;;;;;;;;;5031648;28;20475;-66
2021/08/10 02:41:53;;;;;;;5.35;1.60;;;;;;;;;;5049991;28;20028;-66
2021/08/10 02:44:19;;;;;;;2.65;1.65;;;;;;;;;;5033043;28;20066;-67
2021/08/10 02:46:45;;;;;;;2.08;1.48;;;;;;;;;;5049635;28;20510;-66
2021/08/10 02:49:11;;;;;;;3.22;1.50;;;;;;;;;;5051251;28;20061;-68
2021/08/10 02:51:38;;;;;;;2.47;1.65;;;;;;;;;;5048221;28;20098;-66
2021/08/10 02:54:04;;;;;;;3.33;1.40;;;;;;;;;;5066644;28;20036;-64
2021/08/10 02:56:33;;;;;;;4.17;1.60;;;;;;;;;;5063935;28;20039;-65
2021/08/10 02:59:19;;;;;;;4.03;1.63;;;;;;;;;;5066918;28;20057;-65
2021/08/10 03:01:51;;;;;;;6.55;1.52;;;;;;;;;;5068968;28;20105;-65
2021/08/10 03:04:18;;;;;;;7.43;1.90;;;;;;;;;;4693473;28;9999724;-64
2021/08/10 03:06:44;;;;;;;4.05;1.58;;;;;;;;;;5049807;28;20421;-67
2021/08/10 03:09:10;;;;;;;2.88;1.48;;;;;;;;;;5032961;28;20032;-65
2021/08/10 03:11:40;;;;;;;5.05;1.60;;;;;;;;;;5051406;28;20025;-67
2021/08/10 03:14:10;;;;;;;2.35;1.40;;;;;;;;;;5051180;28;20028;-64
2021/08/10 03:16:37;;;;;;;7.03;1.52;;;;;;;;;;5050742;28;20040;-68
2021/08/10 03:19:06;;;;;;;7.85;1.85;;;;;;;;;;5071263;28;20029;-65
2021/08/10 03:21:33;;;;;;;2.83;1.50;;;;;;;;;;5070791;28;20397;-66
2021/08/10 03:24:02;;;;;;;2.58;1.60;;;;;;;;;;5071290;28;20035;-66
2021/08/10 03:26:29;;;;;;;5.15;1.48;;;;;;;;;;5053858;28;20397;-67
2021/08/10 03:28:55;;;;;;;4.38;1.65;;;;;;;;;;5071212;28;20052;-64
2021/08/10 03:31:21;;;;;;;2.67;1.48;;;;;;;;;;5042769;28;20029;-64
2021/08/10 03:33:48;;;;;;;4.40;1.70;;;;;;;;;;5052361;28;20082;-66
2021/08/10 03:36:14;;;;;;;2.80;1.67;;;;;;;;;;5033453;28;20025;-65
2021/08/10 03:38:40;;;;;;;5.45;1.92;;;;;;;;;;5034987;28;20032;-65
2021/08/10 03:41:06;;;;;;;4.40;1.73;;;;;;;;;;5032824;28;20040;-66
2021/08/10 03:43:34;;;;;;;4.43;1.47;;;;;;;;;;5055310;28;20033;-67
2021/08/10 03:45:59;;;;;;;2.58;1.30;;;;;;;;;;5032071;28;20528;-67
2021/08/10 03:48:25;;;;;;;5.88;1.75;;;;;;;;;;5049018;28;20120;-67
2021/08/10 03:50:53;;;;;;;5.07;1.90;;;;;;;;;;5071430;28;20036;-67
2021/08/10 03:53:24;;;;;;;3.38;1.30;;;;;;;;;;5070997;28;20511;-65
2021/08/10 03:55:50;;;;;;;2.90;1.60;;;;;;;;;;5053271;28;20367;-66
2021/08/10 03:58:17;;;;;;;4.22;1.58;;;;;;;;;;5051435;28;20033;-67
2021/08/10 04:00:43;;;;;;;1.95;1.40;;;;;;;;;;5050835;28;20071;-67
2021/08/10 04:03:11;;;;;;;2.85;1.45;;;;;;;;;;5052432;28;20032;-67
2021/08/10 04:05:39;;;;;;;;;;;;;;;;;;5053362;28;20031;-67
2021/08/10 04:08:08;;;;;;;3.83;1.60;;;;;;;;;;5050663;28;19962;-68
2021/08/10 04:10:33;;;;;;;2.83;1.63;;;;;;;;;;5051128;28;20025;-65
2021/08/10 04:12:59;;;;;;;2.38;1.35;;;;;;;;;;5052051;28;20055;-66
2021/08/10 04:15:25;;;;;;;2.67;1.50;;;;;;;;;;5051221;28;20162;-68
2021/08/10 04:17:51;;;;;;;6.10;1.63;;;;;;;;;;5062378;28;20055;-67
2021/08/10 04:20:18;;;;;;;4.13;1.70;;;;;;;;;;5070417;28;20113;-67
2021/08/10 04:22:44;;;;;;;1.70;1.20;;;;;;;;;;5053691;28;20032;-65
2021/08/10 04:25:10;;;;;;;5.30;1.45;;;;;;;;;;5070655;28;20504;-66
2021/08/10 04:27:35;;;;;;;4.03;1.40;;;;;;;;;;5071702;28;20095;-67
2021/08/10 04:30:00;;;;;;;5.47;1.77;;;;;;;;;;5069483;28;20091;-66
2021/08/10 04:32:26;;;;;;;5.28;2.00;;;;;;;;;;5051869;28;20035;-65
2021/08/10 04:34:51;;;;;;;3.35;1.88;;;;;;;;;;5050727;28;20466;-67
2021/08/10 04:37:16;;;;;;;7.03;1.73;;;;;;;;;;5033767;28;20033;-68
2021/08/10 04:39:42;;;;;;;3.67;1.98;;;;;;;;;;5051493;28;20021;-65
2021/08/10 04:42:07;;;;;;;4.97;1.98;;;;;;;;;;5036512;28;20020;-66
2021/08/10 04:44:33;;;;;;;4.32;1.60;;;;;;;;;;5050710;28;20029;-67
2021/08/10 04:46:58;;;;;;;5.32;1.63;;;;;;;;;;5038840;28;20064;-65
2021/08/10 04:49:23;;;;;;;4.80;1.70;;;;;;;;;;5070098;28;20112;-65
2021/08/10 04:51:48;;;;;;;5.40;1.55;;;;;;;;;;5070120;28;20028;-67
2021/08/10 04:54:16;;;;;;;6.57;1.60;;;;;;;;;;5067609;28;20020;-67
2021/08/10 04:56:42;;;;;;;4.93;1.90;;;;;;;;;;5071141;28;20028;-69
2021/08/10 04:59:07;;;;;;;5.30;1.80;;;;;;;;;;5070601;28;20493;-67
2021/08/10 05:01:33;;;;;;;5.07;1.58;;;;;;;;;;5069836;28;20036;-66
2021/08/10 05:03:58;;;;;;;5.28;1.70;;;;;;;;;;5070380;28;20060;-65
2021/08/10 05:06:24;;;;;;;3.30;1.20;;;;;;;;;;4344679;28;10000070;-66
2021/08/10 05:08:49;;;;;;;4.50;1.60;;;;;;;;;;5011002;28;20283;-69
2021/08/10 05:11:14;;;;;;;4.10;1.45;;;;;;;;;;5029497;28;20033;-65
2021/08/10 05:13:40;;;;;;;5.47;1.40;;;;;;;;;;5013637;28;20425;-65
2021/08/10 05:16:05;;;;;;;2.55;1.42;;;;;;;;;;5029793;28;20032;-69
2021/08/10 05:18:31;;;;;;;2.88;1.48;;;;;;;;;;5063591;28;20358;-66
2021/08/10 05:20:56;;;;;;;3.08;1.52;;;;;;;;;;5052469;28;20055;-68
2021/08/10 05:23:22;;;;;;;4.57;1.40;;;;;;;;;;5052844;28;20024;-66
2021/08/10 05:25:47;;;;;;;3.65;1.42;;;;;;;;;;5051893;28;20606;-66
2021/08/10 05:28:12;;;;;;;7.10;1.90;;;;;;;;;;5071264;28;20025;-67
2021/08/10 05:30:38;;;;;;;5.05;1.50;;;;;;;;;;5045999;28;20033;-65
2021/08/10 05:33:03;;;;;;;4.35;1.70;;;;;;;;;;5049888;28;20096;-66
2021/08/10 05:35:28;;;;;;;3.72;1.70;;;;;;;;;;5043470;28;20103;-68
2021/08/10 05:37:54;;;;;;;2.22;1.40;;;;;;;;;;5036038;28;20386;-66
2021/08/10 05:40:20;;;;;;;2.83;1.45;;;;;;;;;;5032062;28;20047;-67
2021/08/10 05:42:46;;;;;;;4.35;1.60;;;;;;;;;;5031375;28;20082;-67
2021/08/10 05:45:11;;;;;;;3.25;1.60;;;;;;;;;;5030504;28;20493;-69
2021/08/10 05:47:36;;;;;;;3.13;1.70;;;;;;;;;;5051714;28;20068;-66
2021/08/10 05:50:02;;;;;;;3.83;1.70;;;;;;;;;;5072864;28;20520;-67
2021/08/10 05:52:27;;;;;;;2.60;1.48;;;;;;;;;;5073202;28;20029;-67
2021/08/10 05:54:53;;;;;;;6.07;1.85;;;;;;;;;;5054283;28;20025;-67
2021/08/10 05:57:18;;;;;;;2.40;1.35;;;;;;;;;;5071267;28;20091;-67
2021/08/10 05:59:44;;;;;;;4.85;1.75;;;;;;;;;;5073876;28;20031;-68
2021/08/10 06:02:10;;;;;;;6.38;1.80;;;;;;;;;;5068096;28;20074;-67
2021/08/10 06:04:35;;;;;;;6.65;1.50;;;;;;;;;;5056304;28;20025;-65
2021/08/10 06:07:03;;;;;;;4.15;1.75;;;;;;;;;;5054211;28;20025;-67
2021/08/10 06:09:28;;;;;;;5.38;2.20;;;;;;;;;;5053667;28;20036;-66
2021/08/10 06:11:54;;;;;;;6.22;1.92;;;;;;;;;;5053148;28;20025;-65
2021/08/10 06:14:21;;;;;;;4.72;2.22;;;;;;;;;;5053521;28;20037;-68
2021/08/10 06:16:47;;;;;;;5.47;1.98;;;;;;;;;;5055653;28;20483;-67
2021/08/10 06:19:12;;;;;;;3.38;1.90;;;;;;;;;;5074250;28;20115;-64
2021/08/10 06:21:37;;;;;;;4.43;1.92;;;;;;;;;;5073714;28;20024;-67
2021/08/10 06:24:03;;;;;;;4.95;1.77;;;;;;;;;;5073056;28;20052;-67
2021/08/10 06:26:28;;;;;;;3.20;1.90;;;;;;;;;;5072994;28;20028;-68
2021/08/10 06:28:54;;;;;;;6.95;1.90;;;;;;;;;;5044820;28;20025;-70
2021/08/10 06:31:19;;;;;;;6.68;1.90;;;;;;;;;;5051915;28;20036;-68
2021/08/10 06:33:45;;;;;;;6.22;2.08;;;;;;;;;;5056389;28;20025;-68
2021/08/10 06:36:10;;;;;;;5.85;1.90;;;;;;;;;;5048603;28;20025;-64
2021/08/10 06:38:36;;;;;;;5.82;2.10;;;;;;;;;;5033922;28;20035;-64
2021/08/10 06:41:01;;;;;;;3.63;1.95;;;;;;;;;;5015283;28;20025;-66
2021/08/10 06:43:27;;;;;;;5.05;1.70;;;;;;;;;;5033885;28;20025;-65
2021/08/10 06:45:52;;;;;;;3.70;1.98;;;;;;;;;;5033080;28;20076;-67
2021/08/10 06:48:18;;;;;;;5.22;1.95;;;;;;;;;;5026993;28;20505;-68
2021/08/10 06:50:43;;;;;;;6.38;2.10;;;;;;;;;;5034162;28;20037;-66
2021/08/10 06:53:09;;;;;;;4.45;1.70;;;;;;;;;;5015574;28;20034;-66
2021/08/10 06:55:34;;;;;;;5.68;2.13;;;;;;;;;;5051455;28;20025;-64
2021/08/10 06:58:00;;;;;;;6.72;1.80;;;;;;;;;;5049788;28;20037;-67
2021/08/10 07:00:25;;;;;;;3.83;1.77;;;;;;;;;;5065498;28;20594;-66
2021/08/10 07:02:51;;;;;;;6.13;1.80;;;;;;;;;;5072540;28;20028;-67
2021/08/10 07:05:17;;;;;;;5.78;1.92;;;;;;;;;;5060280;28;20029;-66
2021/08/10 07:07:42;;;;;;;5.38;1.60;;;;;;;;;;5052903;28;20024;-66
2021/08/10 07:10:08;;;;;;;5.50;1.60;;;;;;;;;;5034700;28;20020;-68
2021/08/10 07:12:34;;;;;;;4.68;1.50;;;;;;;;;;5051197;28;20448;-68
2021/08/10 07:14:59;;;;;;;4.63;1.80;;;;;;;;;;5051969;28;20021;-64
2021/08/10 07:17:24;;;;;;;3.15;1.50;;;;;;;;;;5059819;28;20081;-65
2021/08/10 07:19:50;;;;;;;4.28;1.60;;;;;;;;;;5052595;28;20385;-64
2021/08/10 07:22:15;;;;;;;3.25;1.52;;;;;;;;;;5037644;28;20022;-67
2021/08/10 07:24:41;;;;;;;4.80;1.20;;;;;;;;;;5048063;28;20036;-68
2021/08/10 07:27:06;;;;;;;2.85;1.40;;;;;;;;;;5033354;28;20027;-67
2021/08/10 07:29:31;;;;;;;3.78;1.60;;;;;;;;;;5028049;28;20061;-65
2021/08/10 07:31:57;;;;;;;2.78;1.40;;;;;;;;;;5066452;28;20031;-67
2021/08/10 07:34:23;;;;;;;3.92;1.50;;;;;;;;;;5031463;28;20524;-66
2021/08/10 07:36:48;;;;;;;2.42;1.10;;;;;;;;;;5051598;28;20032;-66
2021/08/10 07:39:14;;;;;;;3.33;1.13;;;;;;;;;;5029836;28;20025;-67
2021/08/10 07:41:39;;;;;;;3.50;1.20;;;;;;;;;;5020804;28;20048;-68
2021/08/10 07:44:05;;;;;;;4.30;1.40;;;;;;;;;;5037679;28;20385;-68
2021/08/10 07:46:30;;;;;;;2.85;1.30;;;;;;;;;;5070256;28;20481;-64
2021/08/10 07:48:55;;;;;;;3.55;1.30;;;;;;;;;;5053529;28;20077;-67
2021/08/10 07:51:21;;;;;;;3.30;1.30;;;;;;;;;;5042323;28;20017;-68
2021/08/10 07:53:46;;;;;;;5.88;1.88;;;;;;;;;;5050573;28;20021;-68
2021/08/10 07:56:13;;;;;;;6.57;1.50;;;;;;;;;;5051452;28;20028;-67
2021/08/10 07:58:39;;;;;;;3.63;1.40;;;;;;;;;;5051875;28;20040;-67
2021/08/10 08:01:05;;;;;;;4.40;1.65;;;;;;;;;;5033428;28;20025;-67
2021/08/10 08:03:31;;;;;;;3.03;1.25;;;;;;;;;;5051166;28;20037;-66
2021/08/10 08:05:56;;;;;;;4.10;1.70;;;;;;;;;;5043001;28;20143;-69
2021/08/10 08:08:22;;;;;;;4.18;1.38;;;;;;;;;;5032619;28;20029;-70
2021/08/10 08:10:47;;;;;;;5.78;1.55;;;;;;;;;;4344572;28;10000854;-66
2021/08/10 08:13:13;;;;;;;5.50;1.98;;;;;;;;;;5040784;28;20032;-67
2021/08/10 08:15:38;;;;;;;4.05;1.60;;;;;;;;;;5066838;28;20032;-68
2021/08/10 08:18:04;;;;;;;3.28;1.35;;;;;;;;;;5067853;28;20060;-67
2021/08/10 08:20:29;;;;;;;5.28;1.50;;;;;;;;;;5050312;28;20086;-68
2021/08/10 08:22:55;;;;;;;4.25;1.40;;;;;;;;;;5060645;28;20032;-67
2021/08/10 08:25:20;;;;;;;2.83;1.42;;;;;;;;;;5064151;28;20035;-70
2021/08/10 08:27:45;;;;;;;4.75;1.40;;;;;;;;;;5063394;28;20036;-67
2021/08/10 08:30:11;;;;;;;4.30;1.42;;;;;;;;;;5065148;28;20732;-70
2021/08/10 08:32:36;;;;;;;2.70;1.35;;;;;;;;;;5012576;28;20048;-69
2021/08/10 08:35:02;;;;;;;4.88;1.70;;;;;;;;;;5043046;28;20537;-66
2021/08/10 08:37:28;;;;;;;3.03;1.40;;;;;;;;;;5019773;28;20032;-68
2021/08/10 08:39:54;;;;;;;2.47;1.42;;;;;;;;;;5026455;28;20055;-65
2021/08/10 08:42:21;;;;;;;3.20;1.35;;;;;;;;;;5047065;28;20040;-66
2021/08/10 08:44:47;;;;;;;4.57;1.85;;;;;;;;;;5067059;28;20078;-66
2021/08/10 08:47:19;;;;;;;4.03;1.70;;;;;;;;;;5066192;28;20052;-67
2021/08/10 08:49:47;;;;;;;3.70;1.48;;;;;;;;;;5046763;28;20041;-66
2021/08/10 08:52:15;;;;;;;3.58;1.60;;;;;;;;;;5029989;28;20030;-65
2021/08/10 08:54:43;;;;;;;4.40;1.60;;;;;;;;;;5008446;28;20021;-67
2021/08/10 08:57:10;;;;;;;6.15;1.90;;;;;;;;;;5047159;28;20035;-68
2021/08/10 08:59:39;;;;;;;5.25;1.67;;;;;;;;;;5028602;28;20709;-69
2021/08/10 09:02:10;;;;;;;4.03;1.80;;;;;;;;;;5041453;28;20060;-65
2021/08/10 09:04:35;;;;;;;2.30;1.40;;;;;;;;;;5035999;28;20025;-66
2021/08/10 09:07:00;;;;;;;2.92;1.42;;;;;;;;;;5044518;28;20466;-67
2021/08/10 09:09:27;;;;;;;4.20;1.50;;;;;;;;;;5045763;28;20083;-67
2021/08/10 09:11:58;;;;;;;5.97;1.85;;;;;;;;;;5046214;28;20025;-67
2021/08/10 09:14:25;;;;;;;4.15;1.70;;;;;;;;;;5039757;28;20048;-68
2021/08/10 09:17:03;;;;;;;3.23;1.40;;;;;;;;;;5055189;28;20123;-67
2021/08/10 09:20:02;;;;;;;3.58;1.80;;;;;;;;;;5044007;28;20035;-65
2021/08/10 09:22:31;;;;;;;3.20;1.65;;;;;;;;;;5051110;28;20077;-66
2021/08/10 09:25:03;;;;;;;3.47;1.60;;;;;;;;;;5032611;28;20378;-68
2021/08/10 09:27:30;;;;;;;5.00;1.85;;;;;;;;;;5050489;28;20032;-65
2021/08/10 09:29:57;;;;;;;3.45;1.92;;;;;;;;;;5041559;28;20036;-69
2021/08/10 09:32:23;;;;;;;4.35;1.60;;;;;;;;;;5045386;28;20044;-69
2021/08/10 09:35:17;;;;;;;5.30;1.80;;;;;;;;;;5034154;28;20017;-66
2021/08/10 09:38:04;;;;;;;4.20;1.80;;;;;;;;;;5039439;28;20033;-68
2021/08/10 09:40:32;;;;;;;2.40;1.52;;;;;;;;;;5042900;28;20132;-66
2021/08/10 09:43:46;;;;;;;3.47;1.65;;;;;;;;;;5035457;28;20025;-69
2021/08/10 09:46:16;;;;;;;5.38;2.10;;;;;;;;;;5031971;28;20041;-66
2021/08/10 09:49:02;;;;;;;4.85;1.90;;;;;;;;;;5038714;28;20095;-68
2021/08/10 09:51:30;;;;;;;4.28;2.10;;;;;;;;;;5043509;28;20028;-67
2021/08/10 09:54:00;;;;;;;4.50;1.98;;;;;;;;;;5037796;28;20052;-64
2021/08/10 09:56:37;;;;;;;3.83;1.70;;;;;;;;;;5013897;28;20052;-67
2021/08/10 09:59:02;;;;;;;7.45;1.88;;;;;;;;;;5045036;28;20030;-66
2021/08/10 10:01:38;;;;;;;3.85;2.10;;;;;;;;;;5043654;28;20024;-66
2021/08/10 10:04:14;;;;;;;4.45;2.10;;;;;;;;;;5048607;28;20037;-66
2021/08/10 10:06:40;;;;;;;2.58;1.85;;;;;;;;;;5040200;28;20459;-65
2021/08/10 10:09:05;;;;;;;5.40;2.00;;;;;;;;;;5038135;28;20526;-68
2021/08/10 10:11:34;;;;;;;5.65;2.20;;;;;;;;;;5024507;28;20033;-64
2021/08/10 10:14:03;;;;;;;4.97;2.00;;;;;;;;;;5067712;28;20024;-68
2021/08/10 10:16:29;;;;;;;4.35;1.95;;;;;;;;;;5069476;28;20035;-66
2021/08/10 10:18:55;;;;;;;4.33;1.90;;;;;;;;;;5033065;28;20483;-67
2021/08/10 10:21:24;;;;;;;4.00;2.10;;;;;;;;;;5047815;28;20471;-66
2021/08/10 10:23:53;;;;;;;7.03;2.78;;;;;;;;;;5031823;28;20041;-68
2021/08/10 10:26:21;;;;;;;3.97;2.20;;;;;;;;;;5028855;28;20049;-69
2021/08/10 10:28:46;;;;;;;2.88;1.90;;;;;;;;;;5046042;28;20029;-68
2021/08/10 10:31:12;;;;;;;3.63;1.92;;;;;;;;;;5030708;28;20494;-68
2021/08/10 10:33:38;;;;;;;5.40;1.88;;;;;;;;;;5048625;28;20501;-68
2021/08/10 10:36:04;;;;;;;4.17;2.10;;;;;;;;;;5045532;28;20033;-69
2021/08/10 10:38:31;;;;;;;6.13;2.00;;;;;;;;;;5042435;28;20548;-64
2021/08/10 10:40:59;;;;;;;7.13;2.10;;;;;;;;;;5037839;28;20040;-65
2021/08/10 10:43:26;;;;;;;3.97;2.00;;;;;;;;;;5039088;28;20021;-67
2021/08/10 10:45:54;;;;;;;2.63;2.05;;;;;;;;;;5040031;28;20032;-69
2021/08/10 10:48:22;;;;;;;5.28;1.98;;;;;;;;;;5044635;28;20549;-68
2021/08/10 10:51:11;;;;;;;4.60;1.85;;;;;;;;;;5044096;28;20438;-67
2021/08/10 10:53:38;;;;;;;4.05;1.90;;;;;;;;;;5011684;28;20039;-68
2021/08/10 10:56:23;;;;;;;5.47;2.10;;;;;;;;;;5027333;28;20021;-67
2021/08/10 10:58:49;;;;;;;4.30;2.15;;;;;;;;;;5027088;28;20414;-66
2021/08/10 11:01:19;;;;;;;2.93;1.90;;;;;;;;;;5034761;28;20028;-68
2021/08/10 11:04:03;;;;;;;3.97;2.17;;;;;;;;;;5036238;28;20033;-66
2021/08/10 11:06:35;;;;;;;4.13;2.38;;;;;;;;;;5035053;28;20025;-65
2021/08/10 11:09:03;;;;;;;3.63;2.40;;;;;;;;;;5027776;28;20084;-68
2021/08/10 11:11:47;;;;;;;3.25;2.20;;;;;;;;;;5011212;28;20479;-68
2021/08/10 11:14:37;;;;;;;3.75;2.35;;;;;;;;;;5033536;28;20033;-67
2021/08/10 11:17:11;;;;;;;4.20;2.50;;;;;;;;;;5036463;28;20079;-65
2021/08/10 11:19:44;;;;;;;5.80;2.30;;;;;;;;;;5067830;28;20086;-64
2021/08/10 11:22:15;;;;;;;2.55;2.10;;;;;;;;;;5065563;28;20039;-67
2021/08/10 11:24:45;;;;;;;3.95;2.20;;;;;;;;;;5043387;28;20021;-64
2021/08/10 11:27:31;;;;;;;3.60;2.58;;;;;;;;;;5033839;28;20035;-68
2021/08/10 11:29:57;;;;;;;3.03;2.28;;;;;;;;;;5041638;28;20029;-66
2021/08/10 11:32:44;;;;;;;3.87;2.67;;;;;;;;;;5028142;28;20086;-65
2021/08/10 11:35:29;;;;;;;4.22;2.10;;;;;;;;;;5036186;28;20367;-64
2021/08/10 11:38:11;;;;;;;3.58;2.20;;;;;;;;;;5011672;28;20077;-67
2021/08/10 11:40:59;;;;;;;3.88;2.60;;;;;;;;;;5028359;28;20040;-69
2021/08/10 11:43:48;;;;;;;3.97;2.53;;;;;;;;;;5027086;28;20152;-67
2021/08/10 11:46:31;;;;;;;3.85;2.60;;;;;;;;;;5025613;28;20017;-65
2021/08/10 11:49:03;;;;;;;4.88;3.05;;;;;;;;;;5063225;28;20117;-68
2021/08/10 11:51:39;;;;;;;3.58;2.70;;;;;;;;;;5067886;28;20099;-64
2021/08/10 11:54:19;;;;;;;6.07;2.78;;;;;;;;;;5068130;28;20032;-69
2021/08/10 11:56:49;;;;;;;4.63;2.58;;;;;;;;;;5064676;28;20020;-65
2021/08/10 11:59:15;;;;;;;7.00;2.75;;;;;;;;;;5067937;28;20032;-66
2021/08/10 12:01:41;;;;;;;5.20;2.45;;;;;;;;;;5048782;28;20059;-63
2021/08/10 12:04:18;;;;;;;5.85;2.70;;;;;;;;;;5058056;28;20133;-68
2021/08/10 12:06:46;;;;;;;4.38;2.60;;;;;;;;;;5045535;28;20028;-65
2021/08/10 12:09:16;;;;;;;3.92;2.42;;;;;;;;;;5051061;28;20390;-67
2021/08/10 12:11:43;;;;;;;3.60;2.47;;;;;;;;;;5027093;28;20090;-66
2021/08/10 12:14:11;;;;;;;3.30;2.28;;;;;;;;;;5025376;28;20025;-67
2021/08/10 12:16:37;;;;;;;5.47;2.63;;;;;;;;;;5046673;28;20524;-67
2021/08/10 12:19:03;;;;;;;3.73;2.90;;;;;;;;;;5067936;28;20033;-65
2021/08/10 12:21:40;;;;;;;4.83;2.70;;;;;;;;;;5066726;28;20028;-68
2021/08/10 12:24:07;;;;;;;4.10;2.60;;;;;;;;;;5068490;28;20040;-63
2021/08/10 12:26:32;;;;;;;5.47;2.90;;;;;;;;;;5067327;28;20444;-68
2021/08/10 12:29:04;;;;;;;3.70;2.70;;;;;;;;;;5045983;28;20064;-65
2021/08/10 12:31:33;;;;;;;4.70;2.83;;;;;;;;;;5029661;28;20036;-64
2021/08/10 12:33:58;;;;;;;6.03;3.15;;;;;;;;;;5046538;28;20516;-65
2021/08/10 12:36:24;;;;;;;4.27;3.07;;;;;;;;;;5036450;28;20029;-66
2021/08/10 12:38:51;;;;;;;3.47;2.57;;;;;;;;;;5049514;28;20041;-67
2021/08/10 12:41:25;;;;;;;5.50;3.20;;;;;;;;;;5051873;28;20270;-67
2021/08/10 12:43:52;;;;;;;3.95;2.72;;;;;;;;;;5049429;28;20108;-67
2021/08/10 12:46:32;;;;;;;6.00;3.10;;;;;;;;;;5063883;28;20031;-66
2021/08/10 12:49:03;;;;;;;6.28;3.20;;;;;;;;;;5042723;28;20033;-69
2021/08/10 12:51:48;;;;;;;3.60;2.75;;;;;;;;;;5039509;28;20032;-63
2021/08/10 12:54:14;;;;;;;4.85;2.83;;;;;;;;;;5044437;28;20033;-64
2021/08/10 12:56:39;;;;;;;6.38;3.08;;;;;;;;;;5032011;28;20043;-65
2021/08/10 12:59:05;;;;;;;5.23;2.83;;;;;;;;;;5038571;28;20040;-66
2021/08/10 13:01:40;;;;;;;4.90;3.13;;;;;;;;;;5037651;28;20055;-68
2021/08/10 13:04:07;;;;;;;3.85;2.72;;;;;;;;;;5026045;28;20025;-66
2021/08/10 13:06:33;;;;;;;5.97;3.00;;;;;;;;;;5044261;28;20037;-66
2021/08/10 13:08:58;;;;;;;3.57;2.50;;;;;;;;;;5044445;28;20036;-66
2021/08/10 13:11:24;;;;;;;5.07;2.90;;;;;;;;;;5042286;28;20043;-67
2021/08/10 13:13:52;;;;;;;5.82;2.90;;;;;;;;;;5040974;28;20128;-64
2021/08/10 13:16:41;;;;;;;5.40;3.03;;;;;;;;;;5029040;28;20028;-67
2021/08/10 13:19:16;;;;;;;5.80;3.58;;;;;;;;;;5037362;28;20399;-67
2021/08/10 13:21:54;;;;;;;4.80;3.03;;;;;;;;;;5021391;28;20041;-66
2021/08/10 13:24:25;;;;;;;12.82;3.42;;;;;;;;;;5021348;28;20029;-67
2021/08/10 13:26:53;;;;;;;3.55;2.90;;;;;;;;;;5048187;28;20039;-65
2021/08/10 13:29:19;;;;;;;5.40;2.67;;;;;;;;;;5039337;28;20029;-68
2021/08/10 13:31:55;;;;;;;4.43;2.90;;;;;;;;;;5038738;28;20049;-69
2021/08/10 13:34:39;;;;;;;4.70;3.20;;;;;;;;;;5039233;28;20034;-66
2021/08/10 13:37:05;;;;;;;4.22;2.95;;;;;;;;;;5041029;28;20037;-67
2021/08/10 13:39:33;;;;;;;3.33;2.78;;;;;;;;;;5021635;28;20106;-67
2021/08/10 13:42:00;;;;;;;4.93;3.20;;;;;;;;;;5041444;28;20029;-68
2021/08/10 13:44:26;;;;;;;4.63;2.80;;;;;;;;;;5051860;28;20615;-67
2021/08/10 13:46:51;;;;;;;5.50;2.72;;;;;;;;;;5051695;28;20045;-65
2021/08/10 13:49:17;;;;;;;5.43;3.20;;;;;;;;;;5051743;28;20398;-66
2021/08/10 13:51:42;;;;;;;4.50;3.07;;;;;;;;;;5048242;28;20108;-67
2021/08/10 13:54:08;;;;;;;5.10;2.93;;;;;;;;;;5030101;28;20567;-67
2021/08/10 13:56:34;;;;;;;4.80;3.03;;;;;;;;;;5029489;28;20768;-66
2021/08/10 13:59:00;;;;;;;8.60;3.30;;;;;;;;;;5044789;28;20132;-67
2021/08/10 14:03:54;;;;;;;4.30;3.00;;;;;;;;;;5059761;28;20110;-66
2021/08/10 14:06:21;;;;;;;6.87;3.10;;;;;;;;;;5032440;28;20691;-65
2021/08/10 14:08:48;;;;;;;4.88;2.80;;;;;;;;;;5049766;28;20059;-66
2021/08/10 14:11:14;;;;;;;;;;;;;;;;;;5025581;28;20044;-65
2021/08/10 14:13:39;;;;;;;5.63;3.30;;;;;;;;;;5040813;28;19917;-64
2021/08/10 14:16:08;;;;;;;5.67;3.20;;;;;;;;;;5036135;28;20024;-65
2021/08/10 14:18:33;;;;;;;5.22;3.10;;;;;;;;;;5052852;28;20039;-64
2021/08/10 14:20:59;;;;;;;4.45;3.30;;;;;;;;;;5050980;28;20045;-67
2021/08/10 14:23:24;;;;;;;5.28;3.08;;;;;;;;;;5048960;28;20474;-67
2021/08/10 14:25:49;;;;;;;5.53;3.28;;;;;;;;;;5046581;28;20382;-66
2021/08/10 14:28:15;;;;;;;9.73;3.37;;;;;;;;;;5031102;28;20021;-66
2021/08/10 14:30:40;;;;;;;5.40;3.35;;;;;;;;;;5039541;28;20502;-65
2021/08/10 14:33:06;;;;;;;5.33;3.40;;;;;;;;;;5033116;28;20039;-64
2021/08/10 14:35:32;;;;;;;6.22;3.45;;;;;;;;;;5048578;28;20025;-66
2021/08/10 14:37:57;;;;;;;4.53;3.17;;;;;;;;;;5048217;28;20032;-67
2021/08/10 14:40:23;;;;;;;5.03;3.20;;;;;;;;;;5049135;28;20033;-65
2021/08/10 14:42:49;;;;;;;5.87;3.60;;;;;;;;;;5048000;28;20024;-68
2021/08/10 14:45:15;;;;;;;5.95;3.40;;;;;;;;;;5048768;28;20617;-63
2021/08/10 14:47:41;;;;;;;4.68;3.25;;;;;;;;;;5050433;28;20049;-64
2021/08/10 14:50:08;;;;;;;4.57;3.30;;;;;;;;;;5049459;28;20052;-67
2021/08/10 14:52:34;;;;;;;7.03;3.42;;;;;;;;;;5033617;28;20104;-66